Time;durP1;ratioP1;P1;durP2;ratioP2;P2;SDS_P1;SDS_P2;PMS_P1;PMS_P2;Temp;Humidity;BMP_temperature;BMP_pressure;BME280_temperature;BME280_humidity;BME280_pressure;Samples;Min_cycle;Max_cycle;Signal;HPM_P1;HPM_P2
2022/09/21 00:01:10;;;;;;;13.90;5.23;;;;;;;-150.27;100.00;61272.81;5217781;28;20042;-76
2022/09/21 00:03:43;;;;;;;10.20;4.97;;;;;;;-150.27;100.00;61272.81;5214842;28;20033;-77
2022/09/21 00:06:18;;;;;;;10.73;4.87;;;;;;;-150.27;100.00;61272.81;5214598;28;20034;-77
2022/09/21 00:08:50;;;;;;;;;;;;;;;-150.27;100.00;61272.81;5210310;28;20046;-76
2022/09/21 00:11:27;;;;;;;9.53;5.10;;;;;;;-150.27;100.00;61272.81;5206493;28;20548;-74
2022/09/21 00:14:03;;;;;;;12.13;5.13;;;;;;;-150.27;100.00;61272.81;5195489;28;20484;-75
2022/09/21 00:16:35;;;;;;;13.77;5.30;;;;;;;-150.27;100.00;61272.81;5193973;28;20931;-75
2022/09/21 00:19:06;;;;;;;10.63;4.93;;;;;;;-150.27;100.00;61272.81;5198902;28;20042;-73
2022/09/21 00:21:38;;;;;;;9.50;4.30;;;;;;;-150.27;100.00;61272.81;5196782;28;20038;-75
2022/09/21 00:24:10;;;;;;;6.90;4.07;;;;;;;-150.27;100.00;61272.81;5198075;28;20535;-76
2022/09/21 00:26:41;;;;;;;11.03;4.97;;;;;;;-150.27;100.00;61272.81;5213944;28;20037;-75
2022/09/21 00:29:13;;;;;;;8.03;4.50;;;;;;;-150.27;100.00;61272.81;5209224;28;20030;-76
2022/09/21 00:31:44;;;;;;;8.73;4.40;;;;;;;-150.27;100.00;61272.81;5194243;28;20078;-73
2022/09/21 00:34:15;;;;;;;8.90;5.40;;;;;;;-150.27;100.00;61272.81;5194811;28;20030;-76
2022/09/21 00:36:46;;;;;;;9.13;4.70;;;;;;;-150.27;100.00;61272.81;5194389;28;20038;-75
2022/09/21 00:39:18;;;;;;;6.53;3.93;;;;;;;-150.27;100.00;61272.81;5179008;28;20030;-76
2022/09/21 00:41:52;;;;;;;8.63;4.47;;;;;;;-150.27;100.00;61272.81;5194108;28;20030;-74
2022/09/21 00:44:28;;;;;;;9.68;4.80;;;;;;;-150.27;100.00;61272.81;5214796;28;20092;-76
2022/09/21 00:47:05;;;;;;;6.97;4.53;;;;;;;-150.27;100.00;61272.81;5217940;28;20030;-76
2022/09/21 00:49:39;;;;;;;9.60;4.27;;;;;;;-150.27;100.00;61272.81;5197922;28;20050;-77
2022/09/21 00:52:15;;;;;;;8.88;4.93;;;;;;;-150.27;100.00;61272.81;5196488;28;20059;-73
2022/09/21 00:54:56;;;;;;;6.80;4.03;;;;;;;-150.27;100.00;61272.81;5214232;28;20038;-75
2022/09/21 00:57:30;;;;;;;10.83;4.00;;;;;;;-150.27;100.00;61272.81;5210946;28;20037;-75
2022/09/21 01:00:07;;;;;;;10.57;4.45;;;;;;;-150.27;100.00;61272.81;5197670;28;20031;-76
2022/09/21 01:02:38;;;;;;;8.93;4.03;;;;;;;-150.27;100.00;61272.81;5194177;28;20022;-75
2022/09/21 01:05:11;;;;;;;7.80;4.27;;;;;;;-150.27;100.00;61272.81;5194059;28;20097;-76
2022/09/21 01:07:46;;;;;;;12.93;4.07;;;;;;;-150.27;100.00;61272.81;5193463;28;20064;-75
2022/09/21 01:10:18;;;;;;;7.20;3.77;;;;;;;-150.27;100.00;61272.81;5193128;28;20050;-76
2022/09/21 01:13:19;;;;;;;9.23;3.93;;;;;;;-150.27;100.00;61272.81;5194264;28;20022;-76
2022/09/21 01:16:15;;;;;;;10.07;3.50;;;;;;;-150.27;100.00;61272.81;5176405;28;20060;-76
2022/09/21 01:18:57;;;;;;;8.40;3.30;;;;;;;-150.27;100.00;61272.81;5193563;28;20460;-75
2022/09/21 01:21:53;;;;;;;6.07;3.87;;;;;;;-150.27;100.00;61272.81;5193567;28;20102;-75
2022/09/21 01:24:34;;;;;;;8.83;3.73;;;;;;;-150.27;100.00;61272.81;5194686;28;20058;-75
2022/09/21 01:27:24;;;;;;;6.33;3.50;;;;;;;-150.27;100.00;61272.81;5192712;28;20034;-74
2022/09/21 01:30:06;;;;;;;8.90;4.20;;;;;;;-150.27;100.00;61272.81;5193372;28;20117;-76
2022/09/21 01:32:49;;;;;;;9.80;3.50;;;;;;;-150.27;100.00;61272.81;5175951;28;20089;-76
2022/09/21 01:35:23;;;;;;;9.03;3.57;;;;;;;-150.27;100.00;61272.81;5181524;28;20432;-76
2022/09/21 01:38:18;;;;;;;8.48;4.43;;;;;;;-150.27;100.00;61272.81;5212092;28;20106;-75
2022/09/21 01:40:54;;;;;;;8.23;3.75;;;;;;;-150.27;100.00;61272.81;5211242;28;20381;-76
2022/09/21 01:43:32;;;;;;;7.97;3.60;;;;;;;-150.27;100.00;61272.81;5193111;28;20069;-76
2022/09/21 01:46:08;;;;;;;5.20;3.87;;;;;;;-150.27;100.00;61272.81;5193578;28;20396;-76
2022/09/21 01:48:44;;;;;;;6.13;3.30;;;;;;;-150.27;100.00;61272.81;5192664;28;20382;-76
2022/09/21 01:51:20;;;;;;;7.53;3.60;;;;;;;-150.27;100.00;61272.81;5191900;28;20655;-75
2022/09/21 01:53:55;;;;;;;7.63;4.23;;;;;;;-150.27;100.00;61272.81;5213560;28;20512;-76
2022/09/21 01:56:34;;;;;;;6.73;4.20;;;;;;;-150.27;100.00;61272.81;5212149;28;20045;-75
2022/09/21 01:59:13;;;;;;;7.00;3.90;;;;;;;-150.27;100.00;61272.81;5213786;28;20022;-76
2022/09/21 02:01:50;;;;;;;7.30;3.47;;;;;;;-150.27;100.00;61272.81;5192669;28;20031;-76
2022/09/21 02:04:23;;;;;;;8.40;3.73;;;;;;;-150.27;100.00;61272.81;5193559;28;20529;-76
2022/09/21 02:06:54;;;;;;;6.77;3.77;;;;;;;-150.27;100.00;61272.81;5212760;28;20041;-77
2022/09/21 02:09:26;;;;;;;7.93;4.13;;;;;;;-150.27;100.00;61272.81;5195084;28;20413;-75
2022/09/21 02:12:01;;;;;;;13.17;4.47;;;;;;;-150.27;100.00;61272.81;5197458;28;20046;-75
2022/09/21 02:14:35;;;;;;;5.03;3.60;;;;;;;-150.27;100.00;61272.81;5192474;28;20080;-77
2022/09/21 02:17:24;;;;;;;;;;;;;;;-150.27;100.00;61272.81;5177019;28;20019;-74
2022/09/21 02:20:08;;;;;;;8.07;4.27;;;;;;;-150.27;100.00;61272.81;5213103;28;19960;-75
2022/09/21 02:22:55;;;;;;;6.78;3.85;;;;;;;-150.27;100.00;61272.81;5212290;28;20099;-76
2022/09/21 02:25:39;;;;;;;6.57;3.97;;;;;;;-150.27;100.00;61272.81;5210003;28;20034;-77
2022/09/21 02:28:29;;;;;;;5.35;3.53;;;;;;;-150.27;100.00;61272.81;5210754;28;20026;-74
2022/09/21 02:31:32;;;;;;;9.13;3.87;;;;;;;-150.27;100.00;61272.81;5212986;28;20038;-75
2022/09/21 02:34:17;;;;;;;8.03;3.90;;;;;;;-150.27;100.00;61272.81;5185543;28;20049;-76
2022/09/21 02:36:57;;;;;;;8.10;3.90;;;;;;;-150.27;100.00;61272.81;5212755;28;20026;-77
2022/09/21 02:39:37;;;;;;;10.60;3.57;;;;;;;-150.27;100.00;61272.81;5192262;28;20105;-76
2022/09/21 02:42:41;;;;;;;8.83;4.17;;;;;;;-150.27;100.00;61272.81;5189859;28;20040;-74
2022/09/21 02:45:17;;;;;;;7.90;4.07;;;;;;;-150.27;100.00;61272.81;5197570;28;20471;-76
2022/09/21 02:47:58;;;;;;;5.53;3.87;;;;;;;-150.27;100.00;61272.81;5204063;28;20871;-74
2022/09/21 02:50:57;;;;;;;7.87;3.70;;;;;;;-150.27;100.00;61272.81;5191534;28;20030;-75
2022/09/21 02:53:35;;;;;;;6.53;4.10;;;;;;;-150.27;100.00;61272.81;5192350;28;20062;-73
2022/09/21 02:56:08;;;;;;;5.87;3.73;;;;;;;-150.27;100.00;61272.81;5199975;28;20132;-72
2022/09/21 02:58:44;;;;;;;4.37;3.53;;;;;;;-150.27;100.00;61272.81;5213102;28;20578;-74
2022/09/21 03:01:17;;;;;;;8.60;4.27;;;;;;;-150.27;100.00;61272.81;5215538;28;20096;-74
2022/09/21 03:03:49;;;;;;;6.97;4.50;;;;;;;-150.27;100.00;61272.81;5214419;28;20157;-76
2022/09/21 03:06:20;;;;;;;8.77;4.50;;;;;;;-150.27;100.00;61272.81;5213862;28;20113;-77
2022/09/21 03:08:51;;;;;;;11.53;4.83;;;;;;;-150.27;100.00;61272.81;5213697;28;20105;-75
2022/09/21 03:11:24;;;;;;;8.13;3.80;;;;;;;-150.27;100.00;61272.81;5201885;28;20030;-77
2022/09/21 03:13:55;;;;;;;6.17;3.60;;;;;;;-150.27;100.00;61272.81;5193978;28;20033;-74
2022/09/21 03:16:27;;;;;;;5.70;3.97;;;;;;;-150.27;100.00;61272.81;5192825;28;20038;-75
2022/09/21 03:18:58;;;;;;;8.83;4.50;;;;;;;-150.27;100.00;61272.81;5190613;28;20031;-76
2022/09/21 03:21:30;;;;;;;5.23;3.60;;;;;;;-150.27;100.00;61272.81;5202723;28;20046;-74
2022/09/21 03:24:01;;;;;;;6.93;3.87;;;;;;;-150.27;100.00;61272.81;5212561;28;20038;-76
2022/09/21 03:26:33;;;;;;;6.97;4.03;;;;;;;-150.27;100.00;61272.81;5210602;28;20037;-75
2022/09/21 03:29:04;;;;;;;4.83;3.63;;;;;;;-150.27;100.00;61272.81;5212279;28;20030;-75
2022/09/21 03:31:35;;;;;;;6.47;3.87;;;;;;;-150.27;100.00;61272.81;5199766;28;20026;-77
2022/09/21 03:34:06;;;;;;;8.17;3.37;;;;;;;-150.27;100.00;61272.81;5191879;28;20030;-77
2022/09/21 03:36:38;;;;;;;7.93;3.93;;;;;;;-150.27;100.00;61272.81;5173858;28;20072;-75
2022/09/21 03:39:10;;;;;;;7.37;3.87;;;;;;;-150.27;100.00;61272.81;5191758;28;20045;-76
2022/09/21 03:41:41;;;;;;;11.93;4.40;;;;;;;-150.27;100.00;61272.81;5184758;28;20546;-76
2022/09/21 03:44:16;;;;;;;6.23;3.67;;;;;;;-150.27;100.00;61272.81;5211837;28;20091;-76
2022/09/21 03:46:49;;;;;;;10.40;3.90;;;;;;;-150.27;100.00;61272.81;5210830;28;20087;-76
2022/09/21 03:49:20;;;;;;;6.63;3.00;;;;;;;-150.27;100.00;61272.81;5211463;28;20109;-77
2022/09/21 03:51:51;;;;;;;8.20;4.07;;;;;;;-150.27;100.00;61272.81;5198777;28;20109;-77
2022/09/21 03:54:23;;;;;;;6.30;3.80;;;;;;;-150.27;100.00;61272.81;5173079;28;20031;-76
2022/09/21 03:56:54;;;;;;;4.73;3.37;;;;;;;-150.27;100.00;61272.81;5188134;28;20033;-77
2022/09/21 03:59:26;;;;;;;6.23;3.07;;;;;;;-150.27;100.00;61272.81;5210717;28;20037;-76
2022/09/21 04:01:57;;;;;;;7.00;3.30;;;;;;;-150.27;100.00;61272.81;5211775;28;20099;-74
2022/09/21 04:04:28;;;;;;;7.23;3.70;;;;;;;-150.27;100.00;61272.81;5211323;28;20594;-73
2022/09/21 04:06:59;;;;;;;8.10;3.70;;;;;;;-150.27;100.00;61272.81;5210503;28;20452;-77
2022/09/21 04:09:31;;;;;;;6.87;3.70;;;;;;;-150.27;100.00;61272.81;5210276;28;20041;-78
2022/09/21 04:12:02;;;;;;;7.17;3.43;;;;;;;-150.27;100.00;61272.81;5211244;28;20414;-77
2022/09/21 04:14:33;;;;;;;4.33;3.20;;;;;;;-150.27;100.00;61272.81;5210845;28;20124;-78
2022/09/21 04:17:05;;;;;;;6.90;3.43;;;;;;;-150.27;100.00;61272.81;5211991;28;20041;-77
2022/09/21 04:19:36;;;;;;;8.03;3.80;;;;;;;-150.27;100.00;61272.81;5207253;28;20086;-77
2022/09/21 04:22:07;;;;;;;5.77;3.23;;;;;;;-150.27;100.00;61272.81;5207775;28;20041;-77
2022/09/21 04:24:42;;;;;;;4.37;3.10;;;;;;;-150.27;100.00;61272.81;5209634;28;20044;-77
2022/09/21 04:27:13;;;;;;;;;;;;;;;-150.27;100.00;61272.81;5194419;28;20073;-76
2022/09/21 04:29:44;;;;;;;5.27;3.40;;;;;;;-150.27;100.00;61272.81;5211397;28;20388;-77
2022/09/21 04:32:16;;;;;;;6.40;3.60;;;;;;;-150.27;100.00;61272.81;5215304;28;20030;-76
2022/09/21 04:34:47;;;;;;;4.83;3.67;;;;;;;-150.27;100.00;61272.81;5214684;28;20096;-76
2022/09/21 04:37:18;;;;;;;6.13;3.67;;;;;;;-150.27;100.00;61272.81;5214886;28;20048;-76
2022/09/21 04:39:49;;;;;;;8.90;3.97;;;;;;;-150.27;100.00;61272.81;5202269;28;20030;-77
2022/09/21 04:42:21;;;;;;;7.87;3.63;;;;;;;-150.27;100.00;61272.81;5196742;28;20068;-78
2022/09/21 04:44:53;;;;;;;5.03;3.53;;;;;;;-150.27;100.00;61272.81;5214609;28;20472;-75
2022/09/21 04:47:25;;;;;;;4.73;3.40;;;;;;;-150.27;100.00;61272.81;5214670;28;20140;-76
2022/09/21 04:49:56;;;;;;;7.43;3.83;;;;;;;-150.27;100.00;61272.81;5213723;28;20018;-73
2022/09/21 04:52:27;;;;;;;6.27;4.00;;;;;;;-150.27;100.00;61272.81;5214317;28;20116;-74
2022/09/21 04:54:59;;;;;;;8.70;3.70;;;;;;;-150.27;100.00;61272.81;5214030;28;20040;-74
2022/09/21 04:57:30;;;;;;;7.47;3.50;;;;;;;-150.27;100.00;61272.81;5213654;28;20033;-76
2022/09/21 05:00:04;;;;;;;7.67;3.97;;;;;;;-150.27;100.00;61272.81;5209841;28;20058;-75
2022/09/21 05:02:35;;;;;;;9.23;3.92;;;;;;;-150.27;100.00;61272.81;5192555;28;20037;-74
2022/09/21 05:05:07;;;;;;;6.37;3.97;;;;;;;-150.27;100.00;61272.81;5214157;28;20038;-73
2022/09/21 05:07:38;;;;;;;8.67;4.27;;;;;;;-150.27;100.00;61272.81;5213694;28;20026;-75
2022/09/21 05:10:10;;;;;;;9.00;4.27;;;;;;;-150.27;100.00;61272.81;5191218;28;20030;-73
2022/09/21 05:12:42;;;;;;;8.27;4.30;;;;;;;-150.27;100.00;61272.81;5186575;28;20034;-73
2022/09/21 05:15:14;;;;;;;7.73;4.60;;;;;;;-150.27;100.00;61272.81;5176172;28;20034;-73
2022/09/21 05:17:45;;;;;;;5.77;3.60;;;;;;;-150.27;100.00;61272.81;5206653;28;20684;-72
2022/09/21 05:20:16;;;;;;;6.90;4.13;;;;;;;-150.27;100.00;61272.81;5195928;28;20038;-73
2022/09/21 05:22:48;;;;;;;9.97;4.40;;;;;;;-150.27;100.00;61272.81;5213129;28;20034;-73
2022/09/21 05:25:19;;;;;;;9.67;4.03;;;;;;;-150.27;100.00;61272.81;5206315;28;20038;-73
2022/09/21 05:27:50;;;;;;;7.73;4.17;;;;;;;-150.27;100.00;61272.81;5196803;28;20768;-72
2022/09/21 05:30:22;;;;;;;9.43;4.70;;;;;;;-150.27;100.00;61272.81;5213185;28;20053;-72
2022/09/21 05:32:58;;;;;;;10.03;5.47;;;;;;;-150.27;100.00;61272.81;5213920;28;20076;-73
2022/09/21 05:36:06;;;;;;;6.60;4.83;;;;;;;-150.27;100.00;61272.81;5194643;28;20031;-71
2022/09/21 05:38:38;;;;;;;9.53;4.50;;;;;;;-150.27;100.00;61272.81;5183443;28;20440;-72
2022/09/21 05:41:09;;;;;;;6.97;5.17;;;;;;;-150.27;100.00;61272.81;5213561;28;20414;-73
2022/09/21 05:43:42;;;;;;;7.27;5.23;;;;;;;-150.27;100.00;61272.81;5212474;28;20061;-73
2022/09/21 05:46:23;;;;;;;9.93;5.13;;;;;;;-150.27;100.00;61272.81;5211783;28;20623;-73
2022/09/21 05:49:20;;;;;;;12.47;5.83;;;;;;;-150.27;100.00;61272.81;5212356;28;20045;-72
2022/09/21 05:52:25;;;;;;;15.00;6.40;;;;;;;-150.27;100.00;61272.81;5193047;28;20018;-73
2022/09/21 05:55:21;;;;;;;8.38;5.47;;;;;;;-150.27;100.00;61272.81;5211565;28;20430;-73
2022/09/21 05:58:10;;;;;;;;;;;;;;;-150.27;100.00;61272.81;5212099;28;20033;-73
2022/09/21 06:00:58;;;;;;;11.60;5.23;;;;;;;-150.27;100.00;61272.81;5213507;28;20279;-74
2022/09/21 06:03:31;;;;;;;12.63;5.83;;;;;;;-150.27;100.00;61272.81;5210565;28;20041;-75
2022/09/21 06:06:02;;;;;;;11.83;6.00;;;;;;;-150.27;100.00;61272.81;5194290;28;20119;-75
2022/09/21 06:08:34;;;;;;;7.33;5.27;;;;;;;-150.27;100.00;61272.81;5213515;28;20082;-75
2022/09/21 06:11:05;;;;;;;10.80;5.63;;;;;;;-150.27;100.00;61272.81;5211831;28;20499;-75
2022/09/21 06:13:37;;;;;;;7.73;5.77;;;;;;;-150.27;100.00;61272.81;5194282;28;20032;-75
2022/09/21 06:16:08;;;;;;;11.57;6.20;;;;;;;-150.27;100.00;61272.81;5195662;28;20030;-75
2022/09/21 06:18:41;;;;;;;9.37;5.40;;;;;;;-150.27;100.00;61272.81;5214448;28;20064;-74
2022/09/21 06:21:12;;;;;;;9.53;6.30;;;;;;;-150.27;100.00;61272.81;5212324;28;20139;-72
2022/09/21 06:23:44;;;;;;;10.77;6.63;;;;;;;-150.27;100.00;61272.81;5190858;28;20038;-71
2022/09/21 06:26:16;;;;;;;12.77;6.70;;;;;;;-150.27;100.00;61272.81;5206583;28;20508;-75
2022/09/21 06:28:47;;;;;;;13.67;7.60;;;;;;;-150.27;100.00;61272.81;5191890;28;20034;-73
2022/09/21 06:31:19;;;;;;;11.67;8.43;;;;;;;-150.27;100.00;61272.81;5198655;28;20034;-76
2022/09/21 06:33:50;;;;;;;11.83;7.97;;;;;;;-150.27;100.00;61272.81;5189522;28;20537;-78
2022/09/21 06:36:21;;;;;;;20.80;8.90;;;;;;;-150.27;100.00;61272.81;5213846;28;20361;-78
2022/09/21 06:38:53;;;;;;;16.83;9.10;;;;;;;-150.27;100.00;61272.81;5215404;28;20121;-80
2022/09/21 06:41:24;;;;;;;13.73;8.90;;;;;;;-150.27;100.00;61272.81;5195026;28;20032;-79
2022/09/21 06:43:55;;;;;;;15.37;9.00;;;;;;;-150.27;100.00;61272.81;5217671;28;20037;-78
2022/09/21 06:46:27;;;;;;;13.53;7.73;;;;;;;-150.27;100.00;61272.81;5211957;28;20030;-77
2022/09/21 06:48:58;;;;;;;13.90;7.97;;;;;;;-150.27;100.00;61272.81;5209198;28;20041;-73
2022/09/21 06:51:29;;;;;;;10.07;7.93;;;;;;;-150.27;100.00;61272.81;5207325;28;20048;-77
2022/09/21 06:54:01;;;;;;;15.93;8.40;;;;;;;-150.27;100.00;61272.81;5208621;28;20032;-73
2022/09/21 06:56:32;;;;;;;17.53;9.47;;;;;;;-150.27;100.00;61272.81;5209847;28;20045;-74
2022/09/21 06:59:03;;;;;;;10.00;7.97;;;;;;;-150.27;100.00;61272.81;5198508;28;20053;-76
2022/09/21 07:01:35;;;;;;;13.43;7.83;;;;;;;-150.27;100.00;61272.81;5209192;28;20030;-73
2022/09/21 07:04:08;;;;;;;17.43;7.90;;;;;;;-150.27;100.00;61272.81;5210642;28;20053;-75
2022/09/21 07:06:40;;;;;;;14.60;7.95;;;;;;;-150.27;100.00;61272.81;5205563;28;20124;-74
2022/09/21 07:09:11;;;;;;;8.93;7.73;;;;;;;-150.27;100.00;61272.81;5207698;28;20065;-75
2022/09/21 07:11:43;;;;;;;17.63;8.90;;;;;;;-150.27;100.00;61272.81;5194759;28;20029;-75
2022/09/21 07:14:14;;;;;;;13.60;7.87;;;;;;;-150.27;100.00;61272.81;5199016;28;20033;-74
2022/09/21 07:16:45;;;;;;;10.13;7.30;;;;;;;-150.27;100.00;61272.81;5196915;28;20038;-73
2022/09/21 07:19:17;;;;;;;15.17;7.77;;;;;;;-150.27;100.00;61272.81;5208423;28;20037;-74
2022/09/21 07:21:48;;;;;;;12.07;7.10;;;;;;;-150.27;100.00;61272.81;5209933;28;20029;-75
2022/09/21 07:24:19;;;;;;;14.40;7.60;;;;;;;-150.27;100.00;61272.81;5208840;28;20033;-75
2022/09/21 07:26:51;;;;;;;11.90;7.13;;;;;;;-150.27;100.00;61272.81;5210086;28;20029;-75
2022/09/21 07:29:23;;;;;;;11.80;6.43;;;;;;;-150.27;100.00;61272.81;5207605;28;20037;-74
2022/09/21 07:31:54;;;;;;;12.20;6.43;;;;;;;-150.27;100.00;61272.81;5196548;28;20018;-75
2022/09/21 07:34:25;;;;;;;11.80;6.73;;;;;;;-150.27;100.00;61272.81;5209445;28;20148;-75
2022/09/21 07:36:57;;;;;;;10.83;7.00;;;;;;;-150.27;100.00;61272.81;5210050;28;20030;-76
2022/09/21 07:39:28;;;;;;;11.03;6.67;;;;;;;-150.27;100.00;61272.81;5206122;28;20103;-75
2022/09/21 07:42:00;;;;;;;12.33;6.20;;;;;;;-150.27;100.00;61272.81;5208603;28;20056;-74
2022/09/21 07:44:33;;;;;;;10.53;5.30;;;;;;;-150.27;100.00;61272.81;5208971;28;20030;-76
2022/09/21 07:47:05;;;;;;;13.30;5.23;;;;;;;-150.27;100.00;61272.81;5206011;28;20157;-77
2022/09/21 07:49:36;;;;;;;8.77;4.77;;;;;;;-150.27;100.00;61272.81;5203816;28;20527;-74
2022/09/21 07:52:08;;;;;;;10.13;4.40;;;;;;;-150.27;100.00;61272.81;5207120;28;20032;-76
2022/09/21 07:54:39;;;;;;;11.60;4.63;;;;;;;-150.27;100.00;61272.81;5207474;28;20038;-76
2022/09/21 08:00:01;;;;;;;16.40;3.80;;;;;;;-150.27;100.00;61272.81;5206519;28;20041;-75
2022/09/21 08:02:32;;;;;;;11.33;3.33;;;;;;;-150.27;100.00;61272.81;5209426;28;20477;-76
2022/09/21 08:05:04;;;;;;;6.40;3.13;;;;;;;-150.27;100.00;61272.81;5207296;28;20473;-76
2022/09/21 08:07:35;;;;;;;7.37;3.00;;;;;;;-150.27;100.00;61272.81;5213465;28;20022;-77
2022/09/21 08:10:07;;;;;;;6.20;2.95;;;;;;;-150.27;100.00;61272.81;5203977;28;20034;-77
2022/09/21 08:12:38;;;;;;;7.03;2.22;;;;;;;-150.27;100.00;61272.81;5196331;28;20017;-77
2022/09/21 08:15:10;;;;;;;7.85;2.63;;;;;;;-150.27;100.00;61272.81;5209142;28;20034;-76
2022/09/21 08:17:41;;;;;;;9.45;3.05;;;;;;;-150.27;100.00;61272.81;5213027;28;20465;-77
2022/09/21 08:20:13;;;;;;;6.05;2.13;;;;;;;-150.27;100.00;61272.81;5212023;28;20080;-76
2022/09/21 08:22:44;;;;;;;6.60;2.58;;;;;;;-150.27;100.00;61272.81;5212759;28;20038;-76
2022/09/21 08:25:16;;;;;;;7.18;2.55;;;;;;;-150.27;100.00;61272.81;5212374;28;20532;-77
2022/09/21 08:27:48;;;;;;;7.93;2.75;;;;;;;-150.27;100.00;61272.81;5212334;28;20029;-78
2022/09/21 08:30:19;;;;;;;5.55;1.83;;;;;;;-150.27;100.00;61272.81;5210265;28;20034;-74
2022/09/21 08:32:53;;;;;;;11.80;2.80;;;;;;;-150.27;100.00;61272.81;5203072;28;20551;-77
2022/09/21 08:35:24;;;;;;;6.75;1.73;;;;;;;-150.27;100.00;61272.81;5205720;28;20044;-77
2022/09/21 08:37:55;;;;;;;6.03;2.65;;;;;;;-150.27;100.00;61272.81;5209519;28;20033;-77
2022/09/21 08:40:27;;;;;;;8.05;2.03;;;;;;;-150.27;100.00;61272.81;5209384;28;20030;-77
2022/09/21 08:43:12;;;;;;;5.70;1.77;;;;;;;-150.27;100.00;61272.81;5211365;28;20060;-79
2022/09/21 08:45:44;;;;;;;6.03;2.20;;;;;;;-150.27;100.00;61272.81;5205530;28;20040;-79
2022/09/21 08:48:21;;;;;;;8.68;2.50;;;;;;;-150.27;100.00;61272.81;5213461;28;20076;-75
2022/09/21 08:50:56;;;;;;;7.13;2.08;;;;;;;-150.27;100.00;61272.81;5202293;28;20109;-78
2022/09/21 08:53:33;;;;;;;8.30;2.05;;;;;;;-150.27;100.00;61272.81;5212439;28;20103;-75
2022/09/21 08:56:05;;;;;;;6.55;1.88;;;;;;;-150.27;100.00;61272.81;5211734;28;20026;-78
2022/09/21 08:58:36;;;;;;;5.13;1.70;;;;;;;-150.27;100.00;61272.81;5212562;28;20789;-78
2022/09/21 09:01:32;;;;;;;8.35;1.88;;;;;;;-150.27;100.00;61272.81;5210400;28;20033;-76
2022/09/21 09:04:15;;;;;;;10.50;1.67;;;;;;;-150.27;100.00;61272.81;5211763;28;20432;-77
2022/09/21 09:07:28;;;;;;;6.68;1.73;;;;;;;-150.27;100.00;61272.81;5209240;28;20476;-79
2022/09/21 09:10:13;;;;;;;6.80;1.80;;;;;;;-150.27;100.00;61272.81;5178898;28;20140;-77
2022/09/21 09:13:03;;;;;;;6.53;1.35;;;;;;;-150.27;100.00;61272.81;5208340;28;20038;-77
2022/09/21 09:16:12;;;;;;;4.50;1.30;;;;;;;-150.27;100.00;61272.81;5209346;28;20672;-77
2022/09/21 09:18:50;;;;;;;9.20;1.73;;;;;;;-150.27;100.00;61272.81;5211465;28;20432;-79
2022/09/21 09:21:33;;;;;;;9.27;2.03;;;;;;;-150.27;100.00;61272.81;5210401;28;20547;-79
2022/09/21 09:24:32;;;;;;;5.40;1.17;;;;;;;-150.27;100.00;61272.81;5210597;28;20544;-78
2022/09/21 09:27:28;;;;;;;9.02;1.60;;;;;;;-150.27;100.00;61272.81;5212270;28;20152;-74
2022/09/21 09:30:12;;;;;;;4.25;1.25;;;;;;;-150.27;100.00;61272.81;5208857;28;20109;-79
2022/09/21 09:33:00;;;;;;;8.65;1.88;;;;;;;-150.27;100.00;61272.81;5197884;28;20029;-80
2022/09/21 09:35:46;;;;;;;5.88;1.63;;;;;;;-150.27;100.00;61272.81;5211293;28;20116;-78
2022/09/21 09:38:27;;;;;;;3.70;1.10;;;;;;;-150.27;100.00;61272.81;5211659;28;20029;-79
2022/09/21 09:41:07;;;;;;;8.70;1.58;;;;;;;-150.27;100.00;61272.81;5208568;28;20030;-80
2022/09/21 09:44:03;;;;;;;6.63;1.20;;;;;;;-150.27;100.00;61272.81;5210512;28;20084;-78
2022/09/21 09:46:58;;;;;;;7.25;1.02;;;;;;;-150.27;100.00;61272.81;5208377;28;20022;-75
2022/09/21 09:49:38;;;;;;;4.20;1.55;;;;;;;-150.27;100.00;61272.81;5209197;28;20591;-78
2022/09/21 09:52:13;;;;;;;5.95;1.58;;;;;;;-150.27;100.00;61272.81;5210883;28;20030;-80
2022/09/21 09:54:45;;;;;;;4.90;1.10;;;;;;;-150.27;100.00;61272.81;5209372;28;20036;-76
2022/09/21 09:57:25;;;;;;;8.65;1.40;;;;;;;-150.27;100.00;61272.81;5211865;28;20656;-77
2022/09/21 10:00:04;;;;;;;3.70;1.25;;;;;;;-150.27;100.00;61272.81;5208158;28;20707;-77
2022/09/21 10:02:47;;;;;;;6.82;1.48;;;;;;;-150.27;100.00;61272.81;5202989;28;20141;-79
2022/09/21 10:05:22;;;;;;;5.38;0.98;;;;;;;-150.27;100.00;61272.81;5211002;28;20048;-79
2022/09/21 10:07:54;;;;;;;6.18;1.75;;;;;;;-150.27;100.00;61272.81;5200732;28;20046;-80
2022/09/21 10:10:28;;;;;;;7.53;1.40;;;;;;;-150.27;100.00;61272.81;5211805;28;20033;-75
2022/09/21 10:13:08;;;;;;;4.80;1.23;;;;;;;-150.27;100.00;61272.81;5209181;28;20034;-78
2022/09/21 10:15:44;;;;;;;6.07;1.25;;;;;;;-150.27;100.00;61272.81;5207408;28;20029;-79
2022/09/21 10:18:21;;;;;;;3.35;0.95;;;;;;;-150.27;100.00;61272.81;5206664;28;20077;-73
2022/09/21 10:21:24;;;;;;;5.13;1.27;;;;;;;-150.27;100.00;61272.81;5204193;28;20025;-74
2022/09/21 10:23:58;;;;;;;2.83;0.88;;;;;;;-150.27;100.00;61272.81;5193941;28;20045;-72
2022/09/21 10:26:34;;;;;;;4.95;0.98;;;;;;;-150.27;100.00;61272.81;5207885;28;20804;-73
2022/09/21 10:29:21;;;;;;;5.38;1.20;;;;;;;-150.27;100.00;61272.81;5208825;28;20081;-72
2022/09/21 10:32:06;;;;;;;5.78;1.70;;;;;;;-150.27;100.00;61272.81;5197466;28;20037;-73
2022/09/21 10:34:58;;;;;;;4.43;1.00;;;;;;;-150.27;100.00;61272.81;5210842;28;20764;-74
2022/09/21 10:37:40;;;;;;;3.50;1.13;;;;;;;-150.27;100.00;61272.81;5209528;28;20412;-73
2022/09/21 10:40:20;;;;;;;3.88;0.70;;;;;;;-150.27;100.00;61272.81;5205328;28;20927;-74
2022/09/21 10:42:54;;;;;;;5.68;0.60;;;;;;;-150.27;100.00;61272.81;5210591;28;20096;-75
2022/09/21 10:45:31;;;;;;;4.32;1.13;;;;;;;-150.27;100.00;61272.81;5205362;28;20034;-75
2022/09/21 10:48:12;;;;;;;6.88;1.55;;;;;;;-150.27;100.00;61272.81;5209742;28;20373;-76
2022/09/21 10:50:45;;;;;;;6.78;1.88;;;;;;;-150.27;100.00;61272.81;5204859;28;20080;-76
2022/09/21 10:53:30;;;;;;;5.05;1.05;;;;;;;-150.27;100.00;61272.81;5209472;28;20037;-74
2022/09/21 10:56:21;;;;;;;6.75;2.00;;;;;;;-150.27;100.00;61272.81;5200300;28;20428;-77
2022/09/21 10:59:09;;;;;;;5.78;1.20;;;;;;;-150.27;100.00;61272.81;5207745;28;20054;-74
2022/09/21 11:01:47;;;;;;;5.47;1.52;;;;;;;-150.27;100.00;61272.81;5204926;28;20080;-72
2022/09/21 11:04:27;;;;;;;6.32;1.60;;;;;;;-150.27;100.00;61272.81;5193243;28;20041;-74
2022/09/21 11:07:27;;;;;;;7.35;2.00;;;;;;;-150.27;100.00;61272.81;5201374;28;20041;-78
2022/09/21 11:10:17;;;;;;;5.78;1.15;;;;;;;-150.27;100.00;61272.81;5198913;28;20045;-73
2022/09/21 11:12:51;;;;;;;4.95;1.48;;;;;;;-150.27;100.00;61272.81;5201031;28;20121;-73
2022/09/21 11:15:33;;;;;;;2.50;1.00;;;;;;;-150.27;100.00;61272.81;5199575;28;20164;-74
2022/09/21 11:18:20;;;;;;;6.05;1.30;;;;;;;-150.27;100.00;61272.81;5200492;28;20603;-74
2022/09/21 11:20:59;;;;;;;7.18;1.23;;;;;;;-150.27;100.00;61272.81;5197529;28;20034;-73
2022/09/21 11:24:09;;;;;;;7.00;1.23;;;;;;;-150.27;100.00;61272.81;5199479;28;20572;-73
2022/09/21 11:26:47;;;;;;;5.63;0.90;;;;;;;-150.27;100.00;61272.81;5199124;28;20029;-75
2022/09/21 11:29:22;;;;;;;8.82;1.73;;;;;;;-150.27;100.00;61272.81;5199298;28;20033;-72
2022/09/21 11:32:03;;;;;;;4.57;1.00;;;;;;;-150.27;100.00;61272.81;5191990;28;20584;-73
2022/09/21 11:34:46;;;;;;;2.70;0.75;;;;;;;-150.27;100.00;61272.81;5199238;28;20022;-74
2022/09/21 11:37:20;;;;;;;3.92;1.10;;;;;;;-150.27;100.00;61272.81;5201300;28;20035;-73
2022/09/21 11:40:03;;;;;;;6.63;1.27;;;;;;;-150.27;100.00;61272.81;5197330;28;20102;-73
2022/09/21 11:43:02;;;;;;;3.00;0.95;;;;;;;-150.27;100.00;61272.81;5195171;28;20117;-73
2022/09/21 11:45:49;;;;;;;7.13;1.48;;;;;;;-150.27;100.00;61272.81;5187474;28;20113;-74
2022/09/21 11:48:50;;;;;;;4.35;1.20;;;;;;;-150.27;100.00;61272.81;5200672;28;20124;-77
2022/09/21 11:51:37;;;;;;;6.72;1.35;;;;;;;-150.27;100.00;61272.81;5198689;28;20065;-74
2022/09/21 11:54:59;;;;;;;4.40;1.25;;;;;;;-150.27;100.00;61272.81;5199472;28;20030;-78
2022/09/21 11:57:48;;;;;;;3.83;1.00;;;;;;;-150.27;100.00;61272.81;5187162;28;20063;-71